Date,TemperatureHighF,TemperatureAvgF,TemperatureLowF,DewpointHighF,DewpointAvgF,DewpointLowF,HumidityHigh,HumidityAvg,HumidityLow,PressureMaxIn,PressureMinIn,WindSpeedMaxMPH,WindSpeedAvgMPH,GustSpeedMaxMPH,PrecipitationSumIn
2013-1-1,44,42,40,36,30,26,77,63,48,29.95,29.84,5,0,11,0.00
2013-1-2,40,35,30,32,23,17,72,61,50,30.18,29.94,7,1,13,0.00
2013-1-3,36,30,27,24,20,16,81,64,49,30.21,30.11,6,0,8,0.00
2013-1-4,42,37,26,26,24,22,91,62,49,30.16,30.04,14,2,21,0.00
2013-1-5,42,37,30,29,25,22,74,62,50,30.33,30.10,13,1,17,0.00
2013-1-6,49,42,34,37,32,29,91,69,46,30.17,29.97,6,0,10,0.00
2013-1-7,47,39,29,35,31,26,90,73,49,30.39,30.07,11,1,13,0.00
2013-1-8,52,42,29,38,34,26,97,75,53,30.40,30.32,11,0,14,0.00
2013-1-9,60,47,33,48,41,32,97,81,62,30.34,30.17,7,0,10,0.00
2013-1-10,52,46,40,40,33,30,77,61,45,30.53,30.31,10,1,18,0.00
2013-1-11,52,43,34,51,40,30,99,88,71,30.45,30.04,5,0,10,0.09
2013-1-12,48,44,42,47,44,42,100,98,94,30.11,30.04,6,0,8,0.00
2013-1-13,53,46,40,53,46,40,100,100,99,30.09,29.95,7,1,12,0.01
2013-1-14,61,54,43,60,51,38,100,91,68,30.20,29.91,8,1,13,0.09
2013-1-15,43,40,37,41,39,36,98,97,91,30.28,30.09,7,1,10,0.73
2013-1-16,42,39,36,41,38,35,98,97,95,30.08,29.80,13,1,13,0.41
2013-1-17,43,40,35,43,39,34,100,97,86,30.08,29.92,2,0,6,0.40
2013-1-18,39,35,28,34,24,14,95,66,43,30.47,29.98,16,2,18,0.00
2013-1-19,49,40,30,35,30,23,77,67,51,30.41,29.97,11,2,16,0.00
2013-1-20,58,47,40,36,30,20,65,51,38,30.01,29.77,10,2,18,0.00
2013-1-21,45,37,29,37,24,18,83,61,44,30.07,29.72,16,2,19,0.00
2013-1-22,33,24,20,19,5,-1,59,44,33,30.25,29.85,20,6,28,0.00
2013-1-23,26,22,19,10,5,1,57,48,35,30.31,30.13,16,3,20,0.00
2013-1-24,26,22,17,16,11,4,89,63,39,30.46,30.04,16,3,20,0.01
2013-1-25,26,23,19,20,11,5,91,62,42,30.46,30.04,4,1,12,0.00
2013-1-26,33,28,19,23,20,17,90,72,59,30.39,30.04,6,1,16,0.05
2013-1-27,34,28,21,24,19,11,85,69,44,30.56,30.39,4,0,10,0.00
2013-1-28,47,37,28,43,33,24,96,87,80,30.48,30.00,4,1,14,0.08
2013-1-29,66,52,40,53,46,38,97,82,60,30.08,29.97,6,1,14,0.00
2013-1-30,69,58,50,60,54,47,98,87,73,29.96,29.31,22,5,25,0.00
2013-1-31,60,47,32,58,33,17,97,60,31,29.89,29.12,20,6,28,0.52
2013-2-1,33,29,23,31,16,7,94,59,41,30.33,29.77,24,5,29,0.00
2013-2-2,32,27,20,27,14,7,92,60,35,30.34,29.96,12,2,17,0.00
2013-2-3,35,30,24,29,26,23,97,85,63,29.95,29.79,9,0,17,0.02
2013-2-4,38,32,27,31,19,13,81,61,49,30.08,29.87,17,2,31,0.00
2013-2-5,46,38,31,33,30,28,91,72,54,29.88,29.80,6,0,7,0.00
2013-2-6,45,36,28,36,29,24,99,78,53,30.30,29.87,8,0,12,0.00
2013-2-7,41,34,25,32,27,23,93,76,57,30.41,30.15,8,2,11,0.00
2013-2-8,43,39,35,42,37,27,99,93,66,30.14,29.61,18,2,26,0.47
2013-2-9,38,34,30,27,22,19,68,60,51,30.31,29.81,31,6,31,0.00
2013-2-10,41,33,25,32,19,9,83,58,27,30.45,30.24,7,1,11,0.00
2013-2-11,56,49,37,54,47,32,100,92,76,30.23,29.67,8,2,16,0.17
2013-2-12,54,47,41,46,34,28,85,61,38,29.95,29.72,11,1,13,0.00
2013-2-13,46,40,35,40,34,28,97,80,65,29.90,29.58,10,2,14,0.26
2013-2-14,46,39,33,36,33,29,97,80,52,29.99,29.69,11,1,11,0.00
2013-2-15,57,43,32,41,36,31,98,80,52,30.00,29.85,8,1,13,0.00
2013-2-16,40,36,33,36,33,21,95,88,58,29.95,29.73,8,1,12,0.08
2013-2-17,34,31,27,22,15,8,67,52,39,30.13,29.73,20,7,27,0.01
2013-2-18,39,30,24,28,14,8,77,51,28,30.35,30.14,19,4,28,0.00
2013-2-19,47,42,35,46,36,27,96,82,66,30.16,29.69,11,3,13,0.04
2013-2-20,41,35,28,33,20,12,76,56,45,30.09,29.79,22,5,28,0.00
2013-2-21,37,31,26,22,17,13,61,56,47,30.25,30.08,17,5,25,0.00
2013-2-22,36,33,29,34,25,19,95,72,60,30.35,30.17,8,1,11,0.01
2013-2-23,45,41,36,45,41,34,100,99,95,30.16,29.73,7,0,8,0.14
2013-2-24,49,42,35,44,35,24,100,80,50,30.02,29.72,13,2,16,0.01
2013-2-25,44,37,31,30,26,23,88,66,52,30.18,30.03,12,2,13,0.00
2013-2-26,52,40,28,52,37,26,99,89,76,30.18,29.52,17,4,22,0.57
2013-2-27,54,50,43,53,45,39,100,85,60,29.64,29.43,11,1,18,0.03
2013-2-28,48,43,38,41,35,29,93,75,48,29.67,29.56,8,1,13,0.13
2013-3-1,45,42,40,34,32,30,78,70,61,29.80,29.65,11,2,14,0.00
2013-3-2,40,36,33,30,26,22,72,64,57,29.81,29.74,14,5,18,0.00
2013-3-3,38,35,32,25,23,20,71,62,54,29.84,29.73,14,5,20,0.00
2013-3-4,41,36,30,28,22,18,66,58,49,29.97,29.84,18,5,22,0.00
2013-3-5,46,39,33,30,24,18,72,57,33,30.03,29.76,11,2,12,0.00
2013-3-6,42,38,35,40,36,29,95,92,71,29.84,29.42,21,7,26,1.37
2013-3-7,47,42,38,32,30,28,76,63,51,30.05,29.85,16,3,18,0.00
2013-3-8,44,41,37,32,28,24,70,60,53,30.17,30.03,17,3,24,0.00
2013-3-9,53,43,35,33,29,26,81,59,35,30.26,30.16,8,2,11,0.00
2013-3-10,61,44,29,39,32,23,96,67,25,30.29,30.20,7,1,10,0.00
2013-3-11,60,50,38,50,45,38,100,85,68,30.22,29.95,14,3,16,0.00
2013-3-12,58,53,43,57,49,34,99,87,68,29.92,29.66,14,4,22,0.68
2013-3-13,51,43,33,35,31,22,94,65,46,29.99,29.83,16,2,28,0.00
2013-3-14,45,39,34,25,21,18,60,48,34,30.06,29.95,17,6,25,0.00
2013-3-15,52,44,33,36,27,20,76,53,31,30.04,29.74,13,2,16,0.00
2013-3-16,58,46,37,47,38,34,88,74,52,29.84,29.58,10,1,16,0.00
2013-3-17,41,38,36,34,31,28,90,77,63,30.22,29.84,9,1,11,0.00
2013-3-18,42,38,32,41,33,22,99,84,55,30.28,29.80,11,3,16,0.25
2013-3-19,57,45,39,43,38,21,100,79,34,29.84,29.67,9,1,14,0.02
2013-3-20,53,45,39,34,22,15,74,42,24,29.95,29.72,15,3,19,0.00
2013-3-21,44,36,32,35,22,12,79,57,37,29.84,29.67,20,4,21,0.00
2013-3-22,46,37,30,26,19,14,61,49,35,29.94,29.83,13,3,21,0.00
2013-3-23,50,41,30,32,26,22,74,57,39,29.98,29.85,12,2,14,0.00
2013-3-24,43,37,29,33,26,22,95,67,47,29.95,29.61,8,1,13,0.04
2013-3-25,37,35,33,36,34,32,98,96,92,29.62,29.42,11,2,13,0.50
2013-3-26,49,41,35,36,34,29,95,75,49,29.90,29.62,11,2,14,0.00
2013-3-27,50,44,40,35,32,29,74,63,49,30.03,29.90,16,3,21,0.00
2013-3-28,48,44,38,36,32,29,74,64,51,30.14,30.02,12,3,18,0.00
2013-3-29,54,46,38,36,32,29,78,61,39,30.18,30.08,12,2,14,0.00
2013-3-30,58,46,34,41,32,26,94,62,30,30.16,30.06,7,0,8,0.00
2013-3-31,60,50,43,52,44,36,97,82,56,30.09,29.69,17,2,21,0.08
2013-4-1,67,53,44,53,43,25,100,72,38,29.89,29.63,17,2,20,0.02
2013-4-2,49,44,38,28,22,16,52,41,28,30.10,29.90,11,3,18,0.00
2013-4-3,50,44,38,25,20,16,52,39,27,30.30,30.11,13,3,19,0.00
2013-4-4,50,41,34,37,23,14,94,51,27,30.36,30.06,7,1,10,0.16
2013-4-5,61,47,38,42,37,25,98,72,26,30.06,29.76,11,1,14,0.71
2013-4-6,53,46,40,33,28,21,72,50,37,30.27,29.95,9,2,11,0.00
2013-4-7,63,51,38,47,41,32,91,69,46,30.26,29.95,16,3,20,0.00
2013-4-8,76,64,52,55,51,45,84,64,42,30.03,29.92,13,2,13,0.00
2013-4-9,83,72,59,57,54,52,80,57,37,30.02,29.90,10,2,13,0.00
2013-4-10,88,76,63,61,57,54,79,55,34,29.92,29.74,7,1,16,0.00
2013-4-11,82,68,51,64,58,50,96,71,51,29.82,29.72,14,2,17,0.00
2013-4-12,76,60,51,68,58,50,100,94,69,29.78,29.52,11,3,19,0.26
2013-4-13,59,58,56,43,42,41,62,56,53,29.88,29.87,5,1,7,0.00
2013-4-14,66,56,42,52,44,37,99,70,36,30.08,29.88,5,1,12,0.00
2013-4-15,61,56,53,49,48,45,86,72,58,30.24,30.07,6,2,16,0.00
2013-4-16,71,62,52,58,53,48,88,74,59,30.25,30.10,8,2,18,0.00
2013-4-17,76,65,59,65,59,55,95,81,59,30.15,30.07,8,1,12,0.00
2013-4-18,75,65,58,64,58,55,97,80,55,30.19,30.01,8,3,24,0.03
2013-4-19,79,69,62,67,64,60,97,84,64,30.00,29.60,8,4,26,0.44
2013-4-20,66,55,50,65,39,30,97,58,33,30.23,29.68,10,3,25,0.47
2013-4-21,54,48,42,35,29,23,58,49,37,30.53,30.23,8,2,13,0.00
2013-5-1,66,56,48,51,46,36,94,71,35,30.37,30.19,9,4,18,0.00
2013-5-2,66,56,48,53,47,40,96,76,42,30.38,30.26,6,2,13,0.00
2013-5-3,60,54,47,48,44,40,92,70,50,30.32,30.25,8,4,18,0.00
2013-5-4,65,54,47,50,44,37,91,69,39,30.28,30.14,10,4,19,0.00
2013-5-5,62,52,45,49,44,41,89,75,60,30.19,30.10,6,4,14,0.00
2013-5-6,62,55,49,57,53,46,98,92,83,30.13,30.01,7,4,14,0.00
2013-5-7,64,59,56,62,58,55,100,98,90,30.02,29.87,8,5,14,0.85
2013-5-8,60,58,55,57,56,54,96,94,92,29.93,29.89,4,0,7,0.00
2013-5-9,75,63,55,61,58,54,100,85,56,29.94,29.86,6,1,13,0.08
2013-5-10,83,67,56,64,59,56,99,79,40,29.96,29.87,8,0,12,0.00
2013-5-11,79,71,64,71,64,60,97,81,61,29.87,29.65,6,1,16,0.20
2013-5-12,66,62,58,62,47,32,96,60,33,29.95,29.66,8,3,22,0.08
2013-5-13,60,56,50,36,32,27,51,40,29,30.08,29.95,8,3,22,0.00
2013-5-14,63,52,46,39,34,30,64,51,34,30.15,30.03,10,1,14,0.00
2013-5-15,79,64,55,63,53,44,86,67,52,30.03,29.67,8,2,14,0.00
2013-5-16,84,76,69,67,62,59,76,62,46,29.83,29.68,4,1,14,0.00
2013-5-17,80,71,59,61,52,40,94,55,27,30.10,29.84,4,1,11,0.00
2013-5-18,66,61,59,60,56,49,97,84,65,30.18,30.10,5,2,12,0.08
2013-5-19,76,68,61,68,64,60,97,89,69,30.15,30.04,4,1,7,0.00
2013-5-20,83,72,66,70,68,66,98,86,64,30.07,29.94,4,0,11,0.01
2013-5-21,82,73,67,70,68,66,96,84,66,29.95,29.84,9,0,10,0.00
2013-5-22,83,75,70,72,70,68,96,84,69,29.90,29.81,13,1,13,0.00
2013-5-23,78,74,71,70,68,67,87,82,73,29.87,29.75,10,2,18,0.00
2013-5-24,69,60,53,67,54,39,97,81,60,30.04,29.68,12,4,30,0.11
2013-5-25,65,57,49,45,40,37,68,54,37,30.08,30.00,18,5,22,0.00
2013-5-26,71,60,52,48,42,38,76,52,34,30.15,30.07,12,3,19,0.00
2013-5-27,72,62,48,56,50,44,95,66,37,30.22,30.13,4,0,6,0.00
2013-5-28,83,71,62,68,62,56,97,75,60,30.15,30.02,10,1,17,0.22
2013-5-29,89,75,67,71,67,65,97,78,49,30.08,30.02,6,0,12,0.00
2013-5-30,89,79,69,72,68,65,86,70,50,30.13,30.06,5,0,8,0.00
2013-5-31,88,79,67,71,68,66,97,73,52,30.11,29.99,11,1,13,0.00
2013-6-1,90,81,71,72,70,68,90,71,52,30.01,29.89,7,1,16,0.00
2013-6-2,88,78,71,72,69,68,94,75,55,29.90,29.79,17,1,19,0.04
2013-6-3,79,72,69,71,68,66,99,90,67,29.86,29.74,7,0,11,0.11
2013-6-4,75,69,58,68,54,45,93,61,38,30.05,29.86,11,1,12,0.00
2013-6-5,80,68,54,64,56,50,97,68,38,30.11,30.02,9,1,12,0.00
2013-6-6,77,69,60,66,60,56,92,75,57,30.05,29.83,8,2,16,0.01
2013-6-7,73,70,67,72,69,66,100,97,88,29.82,29.46,12,1,20,4.14
2013-6-8,78,70,66,68,66,63,99,87,66,30.02,29.58,16,1,18,0.07
2013-6-9,84,73,63,71,67,63,100,82,54,30.13,30.02,6,0,11,0.00
2013-6-10,82,75,69,74,72,66,99,91,76,30.05,29.77,13,1,18,0.69
2013-6-11,84,76,70,71,68,65,98,79,55,29.78,29.70,11,1,15,0.00
2013-6-12,87,78,70,73,67,64,83,70,57,29.80,29.73,9,1,12,0.00
2013-6-13,89,76,70,75,69,60,96,80,54,29.75,29.41,26,2,26,0.17
2013-6-14,76,68,60,61,58,54,91,73,50,29.89,29.49,14,2,20,0.00
2013-6-15,83,74,63,66,62,58,92,67,43,30.01,29.89,7,1,10,0.00
2013-6-16,85,75,66,70,67,64,98,78,56,29.96,29.82,10,1,12,0.00
2013-6-17,86,77,71,73,71,68,97,83,55,29.91,29.83,3,0,10,0.00
2013-6-18,78,71,64,73,69,63,98,94,85,29.87,29.73,8,1,12,1.64
2013-6-19,76,69,64,66,64,60,98,84,67,30.10,29.80,0,0,0,0.00
2013-6-20,80,70,57,62,57,51,99,66,42,30.22,30.11,0,0,0,0.00
2013-6-21,83,70,56,67,60,53,99,74,53,30.24,30.18,0,0,0,0.00
2013-6-22,86,74,60,69,64,59,99,73,47,30.20,30.10,0,0,0,0.00
2013-6-23,83,76,69,75,70,63,96,83,73,30.13,30.02,0,0,0,0.05
2013-6-24,91,79,71,76,73,68,97,84,57,30.07,29.96,0,0,0,0.31
2013-6-25,90,80,70,77,73,70,100,80,54,29.99,29.84,0,0,0,0.01
2013-6-26,91,81,71,78,72,65,90,76,61,29.90,29.73,11,0,12,0.00
2013-6-27,86,78,71,75,72,68,93,81,70,29.77,29.56,14,1,14,0.03
2013-6-28,88,78,69,74,72,68,98,83,59,29.58,29.44,12,1,17,0.94
2013-6-29,88,77,69,75,72,67,100,85,54,29.65,29.47,8,1,11,0.01
2013-6-30,85,79,76,76,74,73,97,86,72,29.81,29.65,6,1,11,0.00
2013-7-1,80,76,73,76,74,72,99,93,85,29.96,29.80,11,0,11,0.65
2013-7-2,84,76,72,76,73,71,98,91,74,30.14,29.96,6,0,13,0.49
2013-7-3,88,79,73,77,74,72,98,86,66,30.19,30.13,8,0,12,0.00
2013-7-4,88,81,75,75,74,72,95,80,63,30.23,30.14,7,1,13,0.00
2013-7-5,88,82,74,76,74,71,92,78,63,30.19,30.08,9,0,14,0.00
2013-7-6,91,83,77,78,75,71,94,78,59,30.13,30.02,7,0,11,0.00
2013-7-7,91,83,75,77,74,70,90,75,59,30.06,29.94,12,1,12,0.00
2013-7-8,86,78,74,74,72,70,94,82,59,30.05,29.98,10,0,10,0.00
2013-7-9,89,80,75,76,74,72,93,83,60,30.05,29.95,3,0,7,0.00
2013-7-10,90,81,75,78,75,71,92,82,66,29.97,29.80,7,0,11,0.01
2013-7-11,76,74,73,75,73,71,99,95,88,29.85,29.79,6,0,8,0.29
2013-7-12,74,72,70,74,71,69,99,97,92,29.94,29.81,5,1,13,0.92
2013-7-13,87,77,69,77,73,69,100,87,66,30.22,29.94,8,0,10,0.00
2013-7-14,90,80,74,78,74,71,100,84,56,30.28,30.22,7,0,9,0.00
2013-7-15,92,82,73,79,75,72,99,80,56,30.25,30.11,7,0,8,0.00
2013-7-16,92,85,77,78,75,70,93,73,49,30.14,30.08,7,0,11,0.00
2013-7-17,93,85,74,79,76,73,99,76,53,30.13,30.03,7,0,8,0.00
2013-7-18,94,85,76,82,77,75,95,78,55,30.05,29.94,6,0,7,0.00
2013-7-19,94,87,78,80,78,75,93,74,54,29.96,29.81,7,0,12,0.00
2013-7-20,92,85,80,79,76,73,85,76,59,29.84,29.74,7,1,18,0.00
2013-7-21,81,80,79,76,75,74,87,85,84,29.83,29.81,0,0,5,0.00
2013-7-22,90,81,73,77,74,72,98,82,62,29.86,29.71,7,0,11,0.00
2013-7-23,88,81,75,76,73,69,94,78,58,29.71,29.58,10,1,12,0.00
2013-7-24,85,79,72,73,70,65,93,74,60,29.82,29.61,8,0,12,0.00
2013-7-25,76,70,64,66,61,56,79,74,67,29.94,29.81,7,1,10,0.00
2013-7-26,83,73,66,67,63,59,90,73,46,30.02,29.94,7,0,12,0.00
2013-7-27,85,76,68,72,68,64,99,78,53,30.01,29.88,6,0,11,0.00
2013-7-28,87,78,71,75,71,66,96,79,58,29.90,29.81,9,0,12,0.13
2013-7-29,83,74,65,71,64,56,98,75,42,30.09,29.90,8,0,10,0.04
2013-7-30,83,74,63,65,62,56,90,68,44,30.16,30.08,6,0,10,0.00
2013-7-31,82,74,65,70,66,63,98,77,56,30.09,29.97,3,0,8,0.00
2013-8-1,75,72,70,74,70,66,99,95,81,29.97,29.78,7,1,12,1.19
2013-8-2,86,77,69,72,68,60,98,78,42,29.90,29.77,9,0,12,0.01
2013-8-3,83,75,70,72,68,64,94,80,57,29.91,29.86,5,0,7,0.02
2013-8-4,81,74,68,69,63,57,97,71,47,29.94,29.82,8,1,13,0.02
2013-8-5,81,72,63,62,58,51,89,63,39,30.04,29.94,6,1,7,0.00
2013-8-6,74,69,67,68,65,60,97,87,71,30.04,29.96,4,1,13,0.05
2013-8-7,84,74,67,73,69,65,99,85,66,30.03,29.96,5,1,14,0.11
2013-8-8,86,79,75,76,73,71,91,83,69,30.00,29.93,8,1,11,0.00
2013-8-9,92,82,75,78,75,73,96,82,62,29.94,29.77,12,1,13,0.07
2013-8-10,83,78,68,74,69,58,93,75,45,30.02,29.87,5,0,9,0.00
2013-8-11,82,72,65,73,68,62,98,88,67,30.05,29.99,3,0,5,0.01
2013-8-12,88,78,70,76,72,69,99,82,57,29.97,29.86,4,0,8,0.00
2013-8-13,83,78,72,77,72,67,95,82,62,29.86,29.69,5,1,16,0.01
2013-8-14,75,70,65,71,57,51,97,66,49,30.02,29.72,6,2,17,0.02
2013-8-15,77,68,59,60,55,50,88,66,41,30.12,30.02,3,0,10,0.00
2013-8-16,78,67,55,66,57,51,100,73,41,30.14,30.07,4,0,11,0.00
2013-8-17,79,70,61,64,62,59,96,75,52,30.19,30.12,8,2,14,0.00
2013-8-18,70,67,63,66,64,61,98,90,77,30.15,30.08,8,1,13,0.23
2013-8-19,74,68,63,68,66,62,100,92,79,30.12,30.02,6,0,7,0.00
2013-8-20,84,74,65,74,69,65,100,86,65,30.11,30.03,2,0,7,0.00
2013-8-21,88,79,70,75,72,69,100,82,54,30.14,30.03,2,0,11,0.00
2013-8-22,88,78,70,75,72,69,100,83,58,30.05,29.87,4,1,11,0.00
2013-8-23,80,75,70,72,68,61,89,78,68,30.03,29.86,6,0,10,0.00
2013-8-24,82,72,62,66,63,60,98,76,49,30.27,30.04,8,1,11,0.00
2013-8-25,80,69,58,66,60,55,100,75,43,30.36,30.22,5,0,7,0.00
2013-8-26,84,71,60,68,62,57,93,76,51,30.25,29.99,7,0,12,0.00
2013-8-27,88,78,71,74,70,64,90,76,58,29.95,29.81,3,0,11,0.00
2013-8-28,86,76,72,76,73,70,97,88,62,29.85,29.76,4,0,10,0.00
2013-8-29,84,76,69,74,70,65,97,84,66,29.97,29.76,7,2,12,0.00
2013-8-30,84,74,64,72,68,63,100,84,65,29.99,29.86,3,0,10,0.00
2013-8-31,87,79,71,74,72,69,96,79,62,29.88,29.76,6,1,16,0.00
2013-9-1,90,82,73,76,74,70,94,77,59,29.80,29.71,5,0,11,0.00
2013-9-2,88,80,74,75,73,71,93,82,63,29.75,29.67,8,0,11,0.00
2013-9-3,85,78,71,74,70,60,97,77,48,29.87,29.67,6,1,11,0.00
2013-9-4,81,72,63,62,60,58,86,67,49,30.01,29.88,6,1,10,0.00
2013-9-5,84,74,63,67,63,55,97,70,51,30.05,29.93,11,1,14,0.00
2013-9-6,75,67,58,59,54,51,82,63,47,30.17,30.05,8,1,10,0.00
2013-9-7,80,68,54,62,58,53,99,73,48,30.08,29.88,6,0,8,0.00
2013-9-8,87,75,66,69,65,62,96,73,52,29.97,29.80,7,0,10,0.00
2013-9-9,80,71,62,68,61,52,94,72,55,30.12,29.97,8,1,12,0.00
2013-9-10,89,76,69,74,71,67,100,86,61,30.13,30.04,7,0,11,0.00
2013-9-11,92,84,73,75,72,70,94,71,51,30.09,29.97,8,1,13,0.00
2013-9-12,90,78,70,74,72,68,98,83,50,29.96,29.68,14,1,16,0.00
2013-9-13,78,72,67,71,62,52,99,73,44,29.83,29.62,12,1,16,0.00
2013-9-14,69,63,56,56,52,49,83,67,52,30.10,29.83,10,1,13,0.00
2013-9-15,75,58,50,58,52,48,96,81,50,30.18,30.10,4,0,11,0.00
2013-9-16,73,68,62,65,60,54,90,78,59,30.15,29.99,7,0,14,0.00
2013-9-17,67,59,51,54,47,39,82,66,37,30.34,30.15,10,2,16,0.00
2013-9-18,69,58,46,54,50,45,98,78,54,30.29,30.14,6,0,9,0.00
2013-9-19,74,63,50,59,54,49,97,75,53,30.15,30.03,6,0,11,0.00
2013-9-20,79,66,54,64,58,53,100,77,48,30.04,29.92,6,0,10,0.00
2013-9-21,79,66,58,70,62,56,100,88,52,29.94,29.65,13,1,16,0.00
2013-9-22,74,67,60,65,58,51,97,76,46,29.86,29.64,20,2,20,0.00
2013-9-23,65,58,50,52,47,44,93,68,52,30.01,29.86,10,1,14,0.00
2013-9-24,69,58,48,53,49,45,95,74,50,30.03,29.88,10,1,12,0.00
2013-9-25,72,60,51,57,52,44,100,77,39,29.91,29.81,7,0,8,0.00
2013-9-26,74,64,56,61,56,51,97,76,46,29.99,29.85,7,1,10,0.00
2013-9-27,71,63,55,59,56,52,98,78,55,30.17,30.01,5,1,11,0.00
2013-9-28,72,63,56,58,55,52,95,76,52,30.23,30.14,5,2,14,0.00
2013-9-29,74,63,56,60,55,50,98,76,49,30.14,29.99,8,1,10,0.00
2013-9-30,74,62,51,57,53,50,98,76,48,30.03,29.93,7,0,10,0.00
2013-10-1,78,65,52,64,58,50,100,80,53,30.01,29.91,6,0,10,0.00
2013-10-2,83,70,60,66,62,59,100,78,50,30.01,29.93,4,1,11,0.00
2013-10-3,83,73,60,70,64,60,99,76,55,30.05,29.98,4,0,7,0.00
2013-10-4,84,71,64,69,66,63,100,84,49,30.02,29.94,3,0,8,0.00
2013-10-5,85,72,65,70,66,63,100,85,54,30.02,29.95,5,0,8,0.00
2013-10-6,88,77,69,70,68,66,97,78,51,29.98,29.90,7,1,12,0.14
2013-10-7,82,63,0,72,60,0,97,78,66,29.97,29.76,20,2,21,0.40
2013-10-8,63,61,56,52,49,47,73,65,59,30.20,29.98,10,3,13,0.00
2013-10-9,62,59,56,56,53,49,94,81,62,30.20,30.08,8,4,12,0.19
2013-10-10,62,59,56,61,59,55,99,98,94,30.08,29.85,12,2,16,0.79
2013-10-11,67,64,62,66,64,61,100,98,96,29.89,29.80,11,2,12,0.62
2013-10-12,65,63,62,64,62,61,99,97,93,30.05,29.87,10,3,16,0.16
2013-10-13,64,63,62,63,60,58,98,92,80,30.19,30.05,17,5,19,0.04
2013-10-14,68,60,56,59,56,53,94,86,69,30.25,30.16,7,1,10,0.00
2013-10-15,70,61,52,60,56,51,98,84,66,30.17,30.01,6,1,10,0.00
2013-10-16,69,63,59,63,60,57,100,91,77,30.01,29.87,5,0,6,0.00
2013-10-17,76,66,63,66,64,62,100,92,66,29.88,29.76,7,0,10,0.00
2013-10-18,69,60,49,64,48,40,93,66,50,29.96,29.72,8,2,25,0.00
2013-10-19,62,57,49,62,54,46,99,89,71,29.95,29.74,5,0,11,0.02
2013-10-20,62,55,44,57,43,38,92,64,43,30.05,29.78,14,2,22,0.01
2013-10-21,67,52,41,55,45,40,100,81,42,30.11,29.93,7,0,12,0.00
2013-10-22,65,58,51,57,52,47,94,81,63,29.93,29.75,7,0,7,0.01
2013-10-23,57,51,45,48,43,38,95,76,56,29.81,29.58,13,1,20,0.27
2013-10-24,54,49,45,41,35,30,72,60,42,30.07,29.81,16,3,19,0.00
2013-10-25,55,49,44,38,36,33,73,61,48,30.26,30.06,14,3,16,0.00
2013-10-26,58,46,33,44,34,30,98,68,37,30.25,29.90,18,1,18,0.00
2013-10-27,59,52,41,43,40,36,92,64,50,30.09,29.89,7,1,14,0.00
2013-10-28,64,51,40,52,44,38,98,79,48,30.21,30.08,5,0,8,0.00
2013-10-29,63,53,42,52,47,41,98,82,66,30.30,30.21,5,0,7,0.00
2013-10-30,63,56,50,59,54,49,100,93,77,30.27,30.10,3,0,7,0.04
2013-10-31,69,62,52,64,58,51,100,89,73,30.14,29.80,10,1,11,0.02
2013-11-1,70,67,64,66,64,62,98,89,82,29.78,29.57,8,1,18,0.04
2013-11-2,70,61,55,64,53,43,99,77,44,29.80,29.57,9,1,14,0.02
2013-11-3,55,51,41,46,38,29,78,61,42,30.38,29.80,12,2,16,0.00
2013-11-4,47,41,33,32,27,23,70,58,43,30.56,30.36,7,1,13,0.00
2013-11-5,61,50,40,49,43,28,94,78,58,30.55,30.41,4,0,7,0.00
2013-11-6,68,59,50,58,51,46,94,76,54,30.42,30.03,7,0,11,0.00
2013-11-7,65,58,50,63,53,33,99,84,53,30.05,29.76,17,2,26,0.05
2013-11-8,52,47,39,34,30,27,69,52,39,30.25,29.97,17,3,26,0.00
2013-11-9,54,46,32,40,33,29,92,62,41,30.31,29.99,10,1,12,0.00
2013-11-10,64,51,38,42,36,31,86,58,32,30.15,29.87,14,3,22,0.00
2013-11-11,56,49,45,42,36,31,77,60,41,30.25,29.98,10,1,15,0.00
2013-11-12,51,43,36,41,28,17,74,56,42,30.31,29.91,11,2,16,0.00
2013-11-13,43,37,29,24,22,18,77,57,43,30.40,30.30,12,1,18,0.00
2013-11-14,55,41,26,37,27,20,88,63,27,30.35,30.19,7,0,10,0.00
2013-11-15,56,45,32,43,34,29,90,68,43,30.24,30.15,5,0,8,0.00
2013-11-16,52,50,47,52,49,40,100,98,87,30.26,30.17,2,0,5,0.48
2013-11-17,68,57,49,60,55,49,100,92,71,30.19,29.75,8,1,13,0.00
2013-11-18,69,60,52,63,48,33,100,70,35,29.84,29.65,13,1,22,0.26
2013-11-19,52,46,39,37,31,27,63,55,48,30.29,29.84,12,2,20,0.00
2013-11-20,46,40,34,33,29,24,82,66,52,30.50,30.29,10,2,11,0.00
2013-11-21,52,42,35,44,38,32,97,84,73,30.50,30.33,3,0,7,0.00
2013-11-22,62,53,43,55,51,42,99,92,74,30.32,29.92,6,0,12,0.08
2013-11-23,55,47,36,55,34,20,99,62,37,30.08,29.92,18,3,25,0.00
2013-11-24,36,30,27,21,12,8,57,48,38,30.45,30.07,20,6,31,0.00
2013-11-25,36,30,26,21,16,11,68,55,36,30.53,30.33,11,1,14,0.00
2013-11-26,62,42,36,61,35,17,100,78,46,30.32,29.50,13,2,27,0.65
2013-11-27,62,43,32,62,39,19,100,88,56,29.94,29.41,20,6,30,0.85
2013-11-28,37,32,27,22,18,16,72,57,43,30.44,29.96,17,3,22,0.00
2013-11-29,42,34,24,29,24,21,95,66,47,30.67,30.42,8,0,11,0.00
2013-11-30,39,33,27,30,25,20,91,72,60,30.66,30.33,5,1,7,0.00
2013-12-1,46,35,25,38,30,24,99,84,61,30.32,29.97,4,0,6,0.00
2013-12-2,50,40,30,39,36,28,98,84,59,29.97,29.81,3,0,5,0.00
2013-12-3,54,45,41,40,38,36,91,75,51,29.95,29.81,3,0,5,0.00
2013-12-4,54,50,43,52,46,38,96,87,77,30.04,29.94,7,0,10,0.00
2013-12-5,60,55,48,60,54,47,100,98,91,30.04,29.91,7,1,11,0.00
2013-12-6,63,52,41,62,52,41,100,99,92,30.08,29.85,13,1,17,0.09
2013-12-7,43,39,34,41,34,26,99,83,66,30.47,30.02,5,0,13,0.32
2013-12-8,33,31,29,33,27,22,99,86,69,30.51,30.21,10,1,11,13.69
2013-12-9,38,35,33,38,35,32,100,99,98,30.20,29.98,6,0,7,29.77
2013-12-10,37,35,30,36,33,24,99,91,67,30.18,29.89,8,1,17,0.29
2013-12-11,41,33,26,27,24,21,94,73,48,30.37,30.18,7,0,11,0.00
2013-12-12,34,28,23,29,18,11,97,66,44,30.37,30.19,10,1,14,0.00
2013-12-13,42,34,24,28,20,16,84,60,36,30.26,30.17,10,1,14,0.00
2013-12-14,56,39,32,56,35,27,100,86,68,30.27,29.60,8,1,18,0.58
2013-12-15,48,40,29,40,34,24,100,82,61,29.90,29.56,12,3,20,0.00
2013-12-16,39,34,29,29,24,20,86,68,57,30.16,29.90,7,0,14,0.00
2013-12-17,45,37,32,39,33,24,97,85,69,30.12,29.88,11,1,12,0.09
2013-12-18,39,34,28,32,27,22,98,79,52,30.18,29.91,13,2,20,0.15
2013-12-19,56,43,27,34,30,24,93,64,40,30.17,30.03,9,1,11,0.00
2013-12-20,59,53,47,52,42,32,85,67,51,30.08,29.96,7,1,10,0.00
2013-12-21,67,59,52,58,52,48,94,79,63,29.99,29.89,10,2,18,0.00
2013-12-22,72,62,58,66,60,56,98,93,78,29.99,29.84,12,2,17,0.38
2013-12-23,63,55,42,63,53,32,100,94,70,30.14,29.88,7,1,17,0.26
2013-12-24,42,37,27,33,24,11,71,60,44,30.39,30.10,19,3,25,0.00
2013-12-25,31,27,22,19,15,12,82,61,47,30.51,30.36,8,1,17,0.00
2013-12-26,43,31,21,29,23,19,93,76,45,30.36,30.17,7,0,11,0.00
2013-12-27,47,35,25,31,25,19,91,69,38,30.39,30.27,6,0,7,0.00
2013-12-28,37,37,37,31,31,31,78,78,78,30.29,30.29,0,0,0,0.00
2013-12-29,57,47,42,57,43,33,100,88,61,30.08,29.44,13,2,18,0.92
2013-12-30,44,44,44,42,42,42,89,89,89,30.14,29.78,1,1,0,0.00
2013-12-31,44,44,34,42,38,18,89,81,52,30.30,30.07,10,2,13,0.00
2014-1-1,45,36,34,34,22,18,79,56,49,30.40,30.16,10,0,12,0.00
2014-1-2,42,35,31,37,34,30,99,95,81,30.09,29.50,6,1,10,0.11